sensor_id;sensor_type;location;lat;lon;timestamp;temperature;humidity
4635;DHT22;2330;48.158;11.816;2023-03-14T00:01:29;9.70;98.50
4635;DHT22;2330;48.158;11.816;2023-03-14T00:03:56;9.70;98.50
4635;DHT22;2330;48.158;11.816;2023-03-14T00:06:23;9.60;98.50
4635;DHT22;2330;48.158;11.816;2023-03-14T00:08:50;9.50;98.50
4635;DHT22;2330;48.158;11.816;2023-03-14T00:11:19;9.50;98.50
4635;DHT22;2330;48.158;11.816;2023-03-14T00:13:48;9.50;98.50
4635;DHT22;2330;48.158;11.816;2023-03-14T00:16:15;9.50;98.50
4635;DHT22;2330;48.158;11.816;2023-03-14T00:18:42;9.50;98.50
4635;DHT22;2330;48.158;11.816;2023-03-14T00:21:10;9.40;98.50
4635;DHT22;2330;48.158;11.816;2023-03-14T00:23:38;9.10;98.50
4635;DHT22;2330;48.158;11.816;2023-03-14T00:26:09;9.20;98.50
4635;DHT22;2330;48.158;11.816;2023-03-14T00:28:36;9.10;98.50
4635;DHT22;2330;48.158;11.816;2023-03-14T00:31:04;9.10;98.50
4635;DHT22;2330;48.158;11.816;2023-03-14T00:33:32;9.10;98.50
4635;DHT22;2330;48.158;11.816;2023-03-14T00:36:04;9.20;98.50
4635;DHT22;2330;48.158;11.816;2023-03-14T00:38:32;9.30;98.50
4635;DHT22;2330;48.158;11.816;2023-03-14T00:40:59;9.30;98.50
4635;DHT22;2330;48.158;11.816;2023-03-14T00:43:29;9.30;98.50
4635;DHT22;2330;48.158;11.816;2023-03-14T00:45:56;9.30;98.50
4635;DHT22;2330;48.158;11.816;2023-03-14T00:48:23;9.30;98.50
4635;DHT22;2330;48.158;11.816;2023-03-14T00:50:50;9.20;98.50
4635;DHT22;2330;48.158;11.816;2023-03-14T00:53:17;9.20;98.50
4635;DHT22;2330;48.158;11.816;2023-03-14T00:55:44;9.20;98.50
4635;DHT22;2330;48.158;11.816;2023-03-14T00:58:13;9.30;98.50
4635;DHT22;2330;48.158;11.816;2023-03-14T01:00:41;9.40;98.50
4635;DHT22;2330;48.158;11.816;2023-03-14T01:03:08;9.40;98.50
4635;DHT22;2330;48.158;11.816;2023-03-14T01:05:35;9.50;98.50
4635;DHT22;2330;48.158;11.816;2023-03-14T01:08:02;9.50;98.50
4635;DHT22;2330;48.158;11.816;2023-03-14T01:10:29;9.60;98.50
4635;DHT22;2330;48.158;11.816;2023-03-14T01:12:56;9.60;98.50
4635;DHT22;2330;48.158;11.816;2023-03-14T01:15:23;9.70;98.50
4635;DHT22;2330;48.158;11.816;2023-03-14T01:17:49;9.70;98.50
4635;DHT22;2330;48.158;11.816;2023-03-14T01:20:17;9.70;98.50
4635;DHT22;2330;48.158;11.816;2023-03-14T01:22:44;9.70;98.50
4635;DHT22;2330;48.158;11.816;2023-03-14T01:25:14;9.70;98.50
4635;DHT22;2330;48.158;11.816;2023-03-14T01:27:41;9.70;98.50
4635;DHT22;2330;48.158;11.816;2023-03-14T01:30:08;9.70;98.50
4635;DHT22;2330;48.158;11.816;2023-03-14T01:32:35;9.70;98.50
4635;DHT22;2330;48.158;11.816;2023-03-14T01:35:03;9.70;98.50
4635;DHT22;2330;48.158;11.816;2023-03-14T01:37:29;9.70;98.50
4635;DHT22;2330;48.158;11.816;2023-03-14T01:39:56;9.60;98.50
4635;DHT22;2330;48.158;11.816;2023-03-14T01:42:23;9.60;98.50
4635;DHT22;2330;48.158;11.816;2023-03-14T01:44:58;9.50;98.50
4635;DHT22;2330;48.158;11.816;2023-03-14T01:47:26;9.50;98.50
4635;DHT22;2330;48.158;11.816;2023-03-14T01:50:01;9.40;98.50
4635;DHT22;2330;48.158;11.816;2023-03-14T01:55:09;9.30;98.50
4635;DHT22;2330;48.158;11.816;2023-03-14T01:57:49;9.30;98.50
4635;DHT22;2330;48.158;11.816;2023-03-14T02:00:20;9.30;98.50
4635;DHT22;2330;48.158;11.816;2023-03-14T02:02:50;9.40;98.50
4635;DHT22;2330;48.158;11.816;2023-03-14T02:05:23;9.40;98.50
4635;DHT22;2330;48.158;11.816;2023-03-14T02:07:56;9.40;98.50
4635;DHT22;2330;48.158;11.816;2023-03-14T02:10:30;9.40;98.50
4635;DHT22;2330;48.158;11.816;2023-03-14T02:13:02;9.30;98.50
4635;DHT22;2330;48.158;11.816;2023-03-14T02:15:29;9.40;98.50
4635;DHT22;2330;48.158;11.816;2023-03-14T02:17:58;9.30;98.50
4635;DHT22;2330;48.158;11.816;2023-03-14T02:20:30;9.30;98.50
4635;DHT22;2330;48.158;11.816;2023-03-14T02:23:00;9.20;98.50
4635;DHT22;2330;48.158;11.816;2023-03-14T02:25:38;9.20;98.50
4635;DHT22;2330;48.158;11.816;2023-03-14T02:28:06;9.10;98.50
4635;DHT22;2330;48.158;11.816;2023-03-14T02:30:34;9.10;98.50
4635;DHT22;2330;48.158;11.816;2023-03-14T02:33:07;9.00;98.50
4635;DHT22;2330;48.158;11.816;2023-03-14T02:41:04;8.70;98.50
4635;DHT22;2330;48.158;11.816;2023-03-14T02:43:31;8.60;98.50
4635;DHT22;2330;48.158;11.816;2023-03-14T02:45:58;8.60;98.50
4635;DHT22;2330;48.158;11.816;2023-03-14T02:48:41;8.50;98.50
4635;DHT22;2330;48.158;11.816;2023-03-14T02:51:10;8.40;98.50
4635;DHT22;2330;48.158;11.816;2023-03-14T02:53:38;8.40;98.50
4635;DHT22;2330;48.158;11.816;2023-03-14T02:56:07;8.40;98.50
4635;DHT22;2330;48.158;11.816;2023-03-14T02:58:34;8.40;98.50
4635;DHT22;2330;48.158;11.816;2023-03-14T03:01:00;8.40;98.50
4635;DHT22;2330;48.158;11.816;2023-03-14T03:03:27;8.40;98.50
4635;DHT22;2330;48.158;11.816;2023-03-14T03:05:55;8.40;98.50
4635;DHT22;2330;48.158;11.816;2023-03-14T03:08:24;8.40;98.50
4635;DHT22;2330;48.158;11.816;2023-03-14T03:10:51;8.50;98.50
4635;DHT22;2330;48.158;11.816;2023-03-14T03:13:18;8.50;98.50
4635;DHT22;2330;48.158;11.816;2023-03-14T03:15:45;8.50;98.50
4635;DHT22;2330;48.158;11.816;2023-03-14T03:18:12;8.60;98.50
4635;DHT22;2330;48.158;11.816;2023-03-14T03:20:39;8.50;98.50
4635;DHT22;2330;48.158;11.816;2023-03-14T03:23:06;8.50;98.50
4635;DHT22;2330;48.158;11.816;2023-03-14T03:25:32;8.60;98.50
4635;DHT22;2330;48.158;11.816;2023-03-14T03:28:00;8.60;98.50
4635;DHT22;2330;48.158;11.816;2023-03-14T03:30:26;8.70;98.50
4635;DHT22;2330;48.158;11.816;2023-03-14T03:32:53;8.70;98.50
4635;DHT22;2330;48.158;11.816;2023-03-14T03:35:20;8.70;98.50
4635;DHT22;2330;48.158;11.816;2023-03-14T03:37:47;8.60;98.50
4635;DHT22;2330;48.158;11.816;2023-03-14T03:40:13;8.60;98.50
4635;DHT22;2330;48.158;11.816;2023-03-14T03:42:40;8.50;98.50
4635;DHT22;2330;48.158;11.816;2023-03-14T03:45:07;8.50;98.50
4635;DHT22;2330;48.158;11.816;2023-03-14T03:47:34;8.50;98.50
4635;DHT22;2330;48.158;11.816;2023-03-14T03:50:01;8.50;98.50
4635;DHT22;2330;48.158;11.816;2023-03-14T03:52:27;8.50;98.50
4635;DHT22;2330;48.158;11.816;2023-03-14T03:54:54;8.50;98.50
4635;DHT22;2330;48.158;11.816;2023-03-14T03:57:21;8.50;98.50
4635;DHT22;2330;48.158;11.816;2023-03-14T03:59:47;8.50;98.50
4635;DHT22;2330;48.158;11.816;2023-03-14T04:02:14;8.50;98.50
4635;DHT22;2330;48.158;11.816;2023-03-14T04:04:41;8.50;98.50
4635;DHT22;2330;48.158;11.816;2023-03-14T04:07:08;8.60;98.50
4635;DHT22;2330;48.158;11.816;2023-03-14T04:09:37;8.50;98.50
4635;DHT22;2330;48.158;11.816;2023-03-14T04:12:04;8.50;98.50
4635;DHT22;2330;48.158;11.816;2023-03-14T04:14:31;8.50;98.50
4635;DHT22;2330;48.158;11.816;2023-03-14T04:16:57;8.50;98.50
4635;DHT22;2330;48.158;11.816;2023-03-14T04:19:24;8.40;98.50
4635;DHT22;2330;48.158;11.816;2023-03-14T04:21:51;8.40;98.50
4635;DHT22;2330;48.158;11.816;2023-03-14T04:24:17;8.40;98.50
4635;DHT22;2330;48.158;11.816;2023-03-14T04:26:44;8.40;98.50
4635;DHT22;2330;48.158;11.816;2023-03-14T04:29:11;8.30;98.50
4635;DHT22;2330;48.158;11.816;2023-03-14T04:31:39;8.20;98.50
4635;DHT22;2330;48.158;11.816;2023-03-14T04:34:05;8.20;98.50
4635;DHT22;2330;48.158;11.816;2023-03-14T04:36:32;8.20;98.50
4635;DHT22;2330;48.158;11.816;2023-03-14T04:38:59;8.20;98.50
4635;DHT22;2330;48.158;11.816;2023-03-14T04:41:26;8.10;98.50
4635;DHT22;2330;48.158;11.816;2023-03-14T04:43:52;8.10;98.50
4635;DHT22;2330;48.158;11.816;2023-03-14T04:46:19;8.00;98.50
4635;DHT22;2330;48.158;11.816;2023-03-14T04:48:46;8.00;98.50
4635;DHT22;2330;48.158;11.816;2023-03-14T04:51:12;8.00;98.50
4635;DHT22;2330;48.158;11.816;2023-03-14T04:53:39;8.00;98.50
4635;DHT22;2330;48.158;11.816;2023-03-14T04:56:06;8.00;98.50
4635;DHT22;2330;48.158;11.816;2023-03-14T04:58:33;7.90;98.50
4635;DHT22;2330;48.158;11.816;2023-03-14T05:01:04;7.90;98.50
4635;DHT22;2330;48.158;11.816;2023-03-14T05:03:30;7.80;98.50
4635;DHT22;2330;48.158;11.816;2023-03-14T05:05:57;7.80;98.50
4635;DHT22;2330;48.158;11.816;2023-03-14T05:08:25;7.80;98.50
4635;DHT22;2330;48.158;11.816;2023-03-14T05:10:56;7.80;98.50
4635;DHT22;2330;48.158;11.816;2023-03-14T05:13:23;7.80;98.50
4635;DHT22;2330;48.158;11.816;2023-03-14T05:15:50;7.70;98.50
4635;DHT22;2330;48.158;11.816;2023-03-14T05:18:18;7.70;98.50
4635;DHT22;2330;48.158;11.816;2023-03-14T05:20:45;7.70;98.50
4635;DHT22;2330;48.158;11.816;2023-03-14T05:23:11;7.70;98.50
4635;DHT22;2330;48.158;11.816;2023-03-14T05:25:38;7.70;98.50
4635;DHT22;2330;48.158;11.816;2023-03-14T05:28:05;7.70;98.50
4635;DHT22;2330;48.158;11.816;2023-03-14T05:30:32;7.70;98.50
4635;DHT22;2330;48.158;11.816;2023-03-14T05:33:00;7.70;98.50
4635;DHT22;2330;48.158;11.816;2023-03-14T05:35:27;7.70;98.50
4635;DHT22;2330;48.158;11.816;2023-03-14T05:37:53;7.70;98.50
4635;DHT22;2330;48.158;11.816;2023-03-14T05:40:20;7.70;98.50
4635;DHT22;2330;48.158;11.816;2023-03-14T05:42:47;7.70;98.50
4635;DHT22;2330;48.158;11.816;2023-03-14T05:45:14;7.70;98.50
4635;DHT22;2330;48.158;11.816;2023-03-14T05:47:40;7.70;98.50
4635;DHT22;2330;48.158;11.816;2023-03-14T05:50:07;7.70;98.50
4635;DHT22;2330;48.158;11.816;2023-03-14T05:52:34;7.70;98.50
4635;DHT22;2330;48.158;11.816;2023-03-14T05:55:01;7.70;98.50
4635;DHT22;2330;48.158;11.816;2023-03-14T05:57:28;7.70;98.50
4635;DHT22;2330;48.158;11.816;2023-03-14T05:59:54;7.80;98.50
4635;DHT22;2330;48.158;11.816;2023-03-14T06:02:21;7.80;98.50
4635;DHT22;2330;48.158;11.816;2023-03-14T06:04:48;7.80;98.50
4635;DHT22;2330;48.158;11.816;2023-03-14T06:07:15;7.80;98.50
4635;DHT22;2330;48.158;11.816;2023-03-14T06:09:41;7.80;98.50
4635;DHT22;2330;48.158;11.816;2023-03-14T06:12:08;7.70;98.50
4635;DHT22;2330;48.158;11.816;2023-03-14T06:14:35;7.80;98.50
4635;DHT22;2330;48.158;11.816;2023-03-14T06:17:04;7.70;98.50
4635;DHT22;2330;48.158;11.816;2023-03-14T06:19:31;7.80;98.50
4635;DHT22;2330;48.158;11.816;2023-03-14T06:21:57;7.80;98.50
4635;DHT22;2330;48.158;11.816;2023-03-14T06:24:24;7.80;98.50
4635;DHT22;2330;48.158;11.816;2023-03-14T06:26:51;7.90;98.50
4635;DHT22;2330;48.158;11.816;2023-03-14T06:29:17;7.90;98.50
4635;DHT22;2330;48.158;11.816;2023-03-14T06:31:44;7.90;98.50
4635;DHT22;2330;48.158;11.816;2023-03-14T06:34:11;7.90;98.50
4635;DHT22;2330;48.158;11.816;2023-03-14T06:36:37;7.90;98.50
4635;DHT22;2330;48.158;11.816;2023-03-14T06:39:04;7.90;98.50
4635;DHT22;2330;48.158;11.816;2023-03-14T06:41:31;7.90;98.50
4635;DHT22;2330;48.158;11.816;2023-03-14T06:43:59;7.90;98.50
4635;DHT22;2330;48.158;11.816;2023-03-14T06:46:25;8.00;98.50
4635;DHT22;2330;48.158;11.816;2023-03-14T06:48:52;7.90;98.50
4635;DHT22;2330;48.158;11.816;2023-03-14T06:51:20;8.00;98.50
4635;DHT22;2330;48.158;11.816;2023-03-14T06:53:46;8.00;98.50
4635;DHT22;2330;48.158;11.816;2023-03-14T06:56:13;8.00;98.50
4635;DHT22;2330;48.158;11.816;2023-03-14T06:58:40;8.10;98.50
4635;DHT22;2330;48.158;11.816;2023-03-14T07:01:17;8.10;98.50
4635;DHT22;2330;48.158;11.816;2023-03-14T07:03:46;8.10;98.50
4635;DHT22;2330;48.158;11.816;2023-03-14T07:06:13;8.10;98.50
4635;DHT22;2330;48.158;11.816;2023-03-14T07:08:40;8.10;98.50
4635;DHT22;2330;48.158;11.816;2023-03-14T07:11:08;8.00;98.50
4635;DHT22;2330;48.158;11.816;2023-03-14T07:13:38;8.10;98.50
4635;DHT22;2330;48.158;11.816;2023-03-14T07:16:05;8.00;98.50
4635;DHT22;2330;48.158;11.816;2023-03-14T07:18:32;8.00;98.50
4635;DHT22;2330;48.158;11.816;2023-03-14T07:20:59;8.00;98.50
4635;DHT22;2330;48.158;11.816;2023-03-14T07:23:26;8.00;98.50
4635;DHT22;2330;48.158;11.816;2023-03-14T07:25:52;8.00;98.50
4635;DHT22;2330;48.158;11.816;2023-03-14T07:28:20;8.00;98.50
4635;DHT22;2330;48.158;11.816;2023-03-14T07:30:47;8.10;98.50
4635;DHT22;2330;48.158;11.816;2023-03-14T07:33:14;8.10;98.50
4635;DHT22;2330;48.158;11.816;2023-03-14T07:35:41;8.10;98.50
4635;DHT22;2330;48.158;11.816;2023-03-14T07:38:08;8.20;98.50
4635;DHT22;2330;48.158;11.816;2023-03-14T07:40:35;8.20;98.50
4635;DHT22;2330;48.158;11.816;2023-03-14T07:43:01;8.20;98.50
4635;DHT22;2330;48.158;11.816;2023-03-14T07:45:28;8.20;98.50
4635;DHT22;2330;48.158;11.816;2023-03-14T07:47:55;8.20;98.50
4635;DHT22;2330;48.158;11.816;2023-03-14T07:50:25;8.20;98.50
4635;DHT22;2330;48.158;11.816;2023-03-14T07:52:54;8.20;98.50
4635;DHT22;2330;48.158;11.816;2023-03-14T07:55:21;8.30;98.50
4635;DHT22;2330;48.158;11.816;2023-03-14T07:57:48;8.40;98.50
4635;DHT22;2330;48.158;11.816;2023-03-14T08:00:15;8.40;98.50
4635;DHT22;2330;48.158;11.816;2023-03-14T08:02:42;8.50;98.50
4635;DHT22;2330;48.158;11.816;2023-03-14T08:05:09;8.50;98.50
4635;DHT22;2330;48.158;11.816;2023-03-14T08:07:36;8.60;98.50
4635;DHT22;2330;48.158;11.816;2023-03-14T08:10:04;8.70;98.50
4635;DHT22;2330;48.158;11.816;2023-03-14T08:12:31;8.80;98.50
4635;DHT22;2330;48.158;11.816;2023-03-14T08:14:58;9.00;98.50
4635;DHT22;2330;48.158;11.816;2023-03-14T08:17:26;9.10;98.50
4635;DHT22;2330;48.158;11.816;2023-03-14T08:19:54;9.20;98.50
4635;DHT22;2330;48.158;11.816;2023-03-14T08:22:21;9.30;98.50
4635;DHT22;2330;48.158;11.816;2023-03-14T08:24:48;9.30;98.50
4635;DHT22;2330;48.158;11.816;2023-03-14T08:27:14;9.30;98.50
4635;DHT22;2330;48.158;11.816;2023-03-14T08:29:41;9.30;98.50
4635;DHT22;2330;48.158;11.816;2023-03-14T08:32:08;9.40;98.50
4635;DHT22;2330;48.158;11.816;2023-03-14T08:34:35;9.40;98.50
4635;DHT22;2330;48.158;11.816;2023-03-14T08:37:02;9.40;98.50
4635;DHT22;2330;48.158;11.816;2023-03-14T08:39:36;9.50;98.50
4635;DHT22;2330;48.158;11.816;2023-03-14T08:42:03;9.50;98.50
4635;DHT22;2330;48.158;11.816;2023-03-14T08:44:30;9.50;98.50
4635;DHT22;2330;48.158;11.816;2023-03-14T08:46:58;9.50;98.50
4635;DHT22;2330;48.158;11.816;2023-03-14T08:49:25;9.60;98.50
4635;DHT22;2330;48.158;11.816;2023-03-14T08:51:51;9.60;98.50
4635;DHT22;2330;48.158;11.816;2023-03-14T08:54:18;9.70;98.50
4635;DHT22;2330;48.158;11.816;2023-03-14T08:56:45;9.70;98.50
4635;DHT22;2330;48.158;11.816;2023-03-14T08:59:12;9.70;98.50
4635;DHT22;2330;48.158;11.816;2023-03-14T09:01:39;9.80;98.50
4635;DHT22;2330;48.158;11.816;2023-03-14T09:04:05;9.70;98.50
4635;DHT22;2330;48.158;11.816;2023-03-14T09:06:33;9.70;98.50
4635;DHT22;2330;48.158;11.816;2023-03-14T09:09:00;9.70;98.50
4635;DHT22;2330;48.158;11.816;2023-03-14T09:11:27;9.70;98.50
4635;DHT22;2330;48.158;11.816;2023-03-14T09:13:53;9.70;98.50
4635;DHT22;2330;48.158;11.816;2023-03-14T09:16:20;9.80;98.50
4635;DHT22;2330;48.158;11.816;2023-03-14T09:18:47;9.70;98.50
4635;DHT22;2330;48.158;11.816;2023-03-14T09:21:14;9.80;98.50
4635;DHT22;2330;48.158;11.816;2023-03-14T09:23:41;9.80;98.50
4635;DHT22;2330;48.158;11.816;2023-03-14T09:26:08;9.90;98.50
4635;DHT22;2330;48.158;11.816;2023-03-14T09:28:34;9.90;98.50
4635;DHT22;2330;48.158;11.816;2023-03-14T09:31:09;10.00;98.50
4635;DHT22;2330;48.158;11.816;2023-03-14T09:33:37;10.00;98.50
4635;DHT22;2330;48.158;11.816;2023-03-14T09:36:04;10.00;98.50
4635;DHT22;2330;48.158;11.816;2023-03-14T09:38:31;10.00;98.50
4635;DHT22;2330;48.158;11.816;2023-03-14T09:41:01;10.00;98.50
4635;DHT22;2330;48.158;11.816;2023-03-14T09:43:33;10.10;98.50
4635;DHT22;2330;48.158;11.816;2023-03-14T09:46:02;10.00;98.50
4635;DHT22;2330;48.158;11.816;2023-03-14T09:48:32;9.90;98.50
4635;DHT22;2330;48.158;11.816;2023-03-14T09:51:05;9.80;98.50
4635;DHT22;2330;48.158;11.816;2023-03-14T09:53:40;9.80;98.50
4635;DHT22;2330;48.158;11.816;2023-03-14T09:56:13;9.80;98.50
4635;DHT22;2330;48.158;11.816;2023-03-14T09:58:42;9.80;98.50
4635;DHT22;2330;48.158;11.816;2023-03-14T10:01:14;9.70;98.50
4635;DHT22;2330;48.158;11.816;2023-03-14T10:03:44;9.70;98.50
4635;DHT22;2330;48.158;11.816;2023-03-14T10:06:12;9.70;98.50
4635;DHT22;2330;48.158;11.816;2023-03-14T10:08:42;9.70;98.50
4635;DHT22;2330;48.158;11.816;2023-03-14T10:11:15;9.60;98.50
4635;DHT22;2330;48.158;11.816;2023-03-14T10:16:32;9.60;98.50
4635;DHT22;2330;48.158;11.816;2023-03-14T10:19:10;9.70;98.50
4635;DHT22;2330;48.158;11.816;2023-03-14T10:21:40;9.80;98.50
4635;DHT22;2330;48.158;11.816;2023-03-14T10:26:57;9.80;98.50
4635;DHT22;2330;48.158;11.816;2023-03-14T10:29:24;9.80;98.50
4635;DHT22;2330;48.158;11.816;2023-03-14T10:31:58;9.80;98.50
4635;DHT22;2330;48.158;11.816;2023-03-14T10:34:33;10.00;98.50
4635;DHT22;2330;48.158;11.816;2023-03-14T10:37:23;10.10;98.50
4635;DHT22;2330;48.158;11.816;2023-03-14T10:39:54;10.20;98.50
4635;DHT22;2330;48.158;11.816;2023-03-14T10:42:33;10.30;98.50
4635;DHT22;2330;48.158;11.816;2023-03-14T10:45:04;10.70;98.50
4635;DHT22;2330;48.158;11.816;2023-03-14T10:47:32;10.90;98.50
4635;DHT22;2330;48.158;11.816;2023-03-14T10:50:27;11.10;98.50
4635;DHT22;2330;48.158;11.816;2023-03-14T10:52:55;11.50;98.50
4635;DHT22;2330;48.158;11.816;2023-03-14T10:55:39;11.80;98.50
4635;DHT22;2330;48.158;11.816;2023-03-14T10:58:21;11.80;98.50
4635;DHT22;2330;48.158;11.816;2023-03-14T11:01:00;11.90;98.50
4635;DHT22;2330;48.158;11.816;2023-03-14T11:03:31;12.00;98.50
4635;DHT22;2330;48.158;11.816;2023-03-14T11:06:28;11.80;98.50
4635;DHT22;2330;48.158;11.816;2023-03-14T11:09:05;11.50;98.50
4635;DHT22;2330;48.158;11.816;2023-03-14T11:11:34;11.20;98.50
4635;DHT22;2330;48.158;11.816;2023-03-14T11:17:02;11.00;98.50
4635;DHT22;2330;48.158;11.816;2023-03-14T11:25:32;10.80;98.50
4635;DHT22;2330;48.158;11.816;2023-03-14T11:28:01;10.90;98.50
4635;DHT22;2330;48.158;11.816;2023-03-14T11:30:54;11.00;98.50
4635;DHT22;2330;48.158;11.816;2023-03-14T11:33:26;11.00;98.50
4635;DHT22;2330;48.158;11.816;2023-03-14T11:38:32;11.30;98.50
4635;DHT22;2330;48.158;11.816;2023-03-14T11:41:00;11.40;98.50
4635;DHT22;2330;48.158;11.816;2023-03-14T11:43:57;11.60;98.50
4635;DHT22;2330;48.158;11.816;2023-03-14T11:46:36;11.70;98.50
4635;DHT22;2330;48.158;11.816;2023-03-14T11:51:46;11.90;98.50
4635;DHT22;2330;48.158;11.816;2023-03-14T11:54:47;11.90;98.50
4635;DHT22;2330;48.158;11.816;2023-03-14T11:57:17;11.80;98.50
4635;DHT22;2330;48.158;11.816;2023-03-14T12:03:04;11.90;98.50
4635;DHT22;2330;48.158;11.816;2023-03-14T12:08:47;11.90;96.70
4635;DHT22;2330;48.158;11.816;2023-03-14T12:11:33;11.90;95.60
4635;DHT22;2330;48.158;11.816;2023-03-14T12:14:01;12.00;95.20
4635;DHT22;2330;48.158;11.816;2023-03-14T12:16:37;12.00;95.50
4635;DHT22;2330;48.158;11.816;2023-03-14T12:24:26;12.00;94.30
4635;DHT22;2330;48.158;11.816;2023-03-14T12:26:59;12.20;93.50
4635;DHT22;2330;48.158;11.816;2023-03-14T12:29:26;12.40;94.80
4635;DHT22;2330;48.158;11.816;2023-03-14T12:32:24;12.30;95.30
4635;DHT22;2330;48.158;11.816;2023-03-14T12:34:51;12.30;95.10
4635;DHT22;2330;48.158;11.816;2023-03-14T12:37:44;12.20;94.70
4635;DHT22;2330;48.158;11.816;2023-03-14T12:40:21;12.00;95.40
4635;DHT22;2330;48.158;11.816;2023-03-14T12:43:04;12.00;96.60
4635;DHT22;2330;48.158;11.816;2023-03-14T12:48:44;11.90;98.10
4635;DHT22;2330;48.158;11.816;2023-03-14T12:51:17;12.00;98.50
4635;DHT22;2330;48.158;11.816;2023-03-14T12:54:20;12.10;98.50
4635;DHT22;2330;48.158;11.816;2023-03-14T13:04:43;12.00;95.60
4635;DHT22;2330;48.158;11.816;2023-03-14T13:12:43;12.20;95.60
4635;DHT22;2330;48.158;11.816;2023-03-14T13:15:21;12.40;93.80
4635;DHT22;2330;48.158;11.816;2023-03-14T13:17:52;12.60;92.90
4635;DHT22;2330;48.158;11.816;2023-03-14T13:20:27;12.60;93.40
4635;DHT22;2330;48.158;11.816;2023-03-14T13:22:55;12.40;93.80
4635;DHT22;2330;48.158;11.816;2023-03-14T13:25:21;12.30;93.60
4635;DHT22;2330;48.158;11.816;2023-03-14T13:27:52;12.10;94.60
4635;DHT22;2330;48.158;11.816;2023-03-14T13:30:27;12.00;94.10
4635;DHT22;2330;48.158;11.816;2023-03-14T13:32:55;11.90;93.80
4635;DHT22;2330;48.158;11.816;2023-03-14T13:35:38;11.90;94.40
4635;DHT22;2330;48.158;11.816;2023-03-14T13:38:05;12.00;94.00
4635;DHT22;2330;48.158;11.816;2023-03-14T13:40:38;12.00;94.30
4635;DHT22;2330;48.158;11.816;2023-03-14T13:43:14;11.90;95.00
4635;DHT22;2330;48.158;11.816;2023-03-14T13:48:15;11.80;95.80
4635;DHT22;2330;48.158;11.816;2023-03-14T13:50:50;11.70;95.20
4635;DHT22;2330;48.158;11.816;2023-03-14T13:53:18;11.70;95.30
4635;DHT22;2330;48.158;11.816;2023-03-14T13:55:45;11.50;95.90
4635;DHT22;2330;48.158;11.816;2023-03-14T13:58:28;11.40;95.90
4635;DHT22;2330;48.158;11.816;2023-03-14T14:01:01;11.30;97.20
4635;DHT22;2330;48.158;11.816;2023-03-14T14:03:36;11.10;98.50
4635;DHT22;2330;48.158;11.816;2023-03-14T14:06:04;10.50;98.50
4635;DHT22;2330;48.158;11.816;2023-03-14T14:08:32;10.20;98.50
4635;DHT22;2330;48.158;11.816;2023-03-14T14:11:03;10.10;98.50
4635;DHT22;2330;48.158;11.816;2023-03-14T14:13:33;10.10;98.50
4635;DHT22;2330;48.158;11.816;2023-03-14T14:16:02;9.90;98.50
4635;DHT22;2330;48.158;11.816;2023-03-14T14:18:31;9.80;98.50
4635;DHT22;2330;48.158;11.816;2023-03-14T14:20:58;9.80;98.50
4635;DHT22;2330;48.158;11.816;2023-03-14T14:23:27;9.60;98.50
4635;DHT22;2330;48.158;11.816;2023-03-14T14:25:57;9.50;98.50
4635;DHT22;2330;48.158;11.816;2023-03-14T14:31:17;9.20;98.50
4635;DHT22;2330;48.158;11.816;2023-03-14T14:34:00;9.00;98.50
4635;DHT22;2330;48.158;11.816;2023-03-14T14:36:39;8.70;98.50
4635;DHT22;2330;48.158;11.816;2023-03-14T14:39:19;8.60;98.50
4635;DHT22;2330;48.158;11.816;2023-03-14T14:41:51;8.30;98.50
4635;DHT22;2330;48.158;11.816;2023-03-14T14:44:26;8.20;98.50
4635;DHT22;2330;48.158;11.816;2023-03-14T14:46:55;7.90;98.50
4635;DHT22;2330;48.158;11.816;2023-03-14T14:49:29;7.80;98.50
4635;DHT22;2330;48.158;11.816;2023-03-14T14:52:02;7.50;98.50
4635;DHT22;2330;48.158;11.816;2023-03-14T14:54:37;7.50;98.50
4635;DHT22;2330;48.158;11.816;2023-03-14T14:57:23;7.40;98.50
4635;DHT22;2330;48.158;11.816;2023-03-14T14:59:51;7.40;98.50
4635;DHT22;2330;48.158;11.816;2023-03-14T15:02:44;7.40;98.50
4635;DHT22;2330;48.158;11.816;2023-03-14T15:05:24;7.40;98.50
4635;DHT22;2330;48.158;11.816;2023-03-14T15:07:52;7.40;98.50
4635;DHT22;2330;48.158;11.816;2023-03-14T15:10:21;7.30;98.50
4635;DHT22;2330;48.158;11.816;2023-03-14T15:12:48;7.30;98.50
4635;DHT22;2330;48.158;11.816;2023-03-14T15:15:16;7.30;98.50
4635;DHT22;2330;48.158;11.816;2023-03-14T15:17:43;7.30;98.50
4635;DHT22;2330;48.158;11.816;2023-03-14T15:20:15;7.40;98.50
4635;DHT22;2330;48.158;11.816;2023-03-14T15:22:43;7.40;98.50
4635;DHT22;2330;48.158;11.816;2023-03-14T15:25:09;7.40;98.50
4635;DHT22;2330;48.158;11.816;2023-03-14T15:27:52;7.50;98.50
4635;DHT22;2330;48.158;11.816;2023-03-14T15:30:19;7.60;98.50
4635;DHT22;2330;48.158;11.816;2023-03-14T15:32:46;7.60;98.50
4635;DHT22;2330;48.158;11.816;2023-03-14T15:35:14;7.60;98.50
4635;DHT22;2330;48.158;11.816;2023-03-14T15:37:43;7.60;98.50
4635;DHT22;2330;48.158;11.816;2023-03-14T15:40:12;7.60;98.50
4635;DHT22;2330;48.158;11.816;2023-03-14T15:42:41;7.50;98.50
4635;DHT22;2330;48.158;11.816;2023-03-14T15:45:08;7.50;98.50
4635;DHT22;2330;48.158;11.816;2023-03-14T15:47:35;7.40;98.50
4635;DHT22;2330;48.158;11.816;2023-03-14T15:50:02;7.10;98.50
4635;DHT22;2330;48.158;11.816;2023-03-14T15:52:32;7.00;98.50
4635;DHT22;2330;48.158;11.816;2023-03-14T15:54:58;6.80;98.50
4635;DHT22;2330;48.158;11.816;2023-03-14T15:57:26;6.60;98.50
4635;DHT22;2330;48.158;11.816;2023-03-14T15:59:53;6.60;98.50
4635;DHT22;2330;48.158;11.816;2023-03-14T16:02:20;6.50;98.50
4635;DHT22;2330;48.158;11.816;2023-03-14T16:04:47;6.50;98.50
4635;DHT22;2330;48.158;11.816;2023-03-14T16:07:13;6.50;98.50
4635;DHT22;2330;48.158;11.816;2023-03-14T16:09:40;6.50;98.50
4635;DHT22;2330;48.158;11.816;2023-03-14T16:12:07;6.60;98.50
4635;DHT22;2330;48.158;11.816;2023-03-14T16:14:35;6.60;98.50
4635;DHT22;2330;48.158;11.816;2023-03-14T16:17:01;6.60;98.50
4635;DHT22;2330;48.158;11.816;2023-03-14T16:19:28;6.60;98.50
4635;DHT22;2330;48.158;11.816;2023-03-14T16:21:57;6.60;98.50
4635;DHT22;2330;48.158;11.816;2023-03-14T16:24:24;6.60;98.50
4635;DHT22;2330;48.158;11.816;2023-03-14T16:26:50;6.70;98.50
4635;DHT22;2330;48.158;11.816;2023-03-14T16:29:17;6.70;98.50
4635;DHT22;2330;48.158;11.816;2023-03-14T16:31:44;6.70;98.50
4635;DHT22;2330;48.158;11.816;2023-03-14T16:34:11;6.70;98.50
4635;DHT22;2330;48.158;11.816;2023-03-14T16:36:38;6.70;98.50
4635;DHT22;2330;48.158;11.816;2023-03-14T16:39:05;6.70;98.50
4635;DHT22;2330;48.158;11.816;2023-03-14T16:41:31;6.80;98.50
4635;DHT22;2330;48.158;11.816;2023-03-14T16:43:59;6.80;98.50
4635;DHT22;2330;48.158;11.816;2023-03-14T16:46:27;6.90;98.50
4635;DHT22;2330;48.158;11.816;2023-03-14T16:48:56;6.90;98.50
4635;DHT22;2330;48.158;11.816;2023-03-14T16:51:22;6.90;98.50
4635;DHT22;2330;48.158;11.816;2023-03-14T16:53:49;7.00;98.50
4635;DHT22;2330;48.158;11.816;2023-03-14T16:56:16;6.90;98.50
4635;DHT22;2330;48.158;11.816;2023-03-14T16:58:43;6.90;98.50
4635;DHT22;2330;48.158;11.816;2023-03-14T17:01:12;7.00;98.50
4635;DHT22;2330;48.158;11.816;2023-03-14T17:03:41;6.90;98.50
4635;DHT22;2330;48.158;11.816;2023-03-14T17:06:14;6.90;98.50
4635;DHT22;2330;48.158;11.816;2023-03-14T17:08:41;6.80;98.50
4635;DHT22;2330;48.158;11.816;2023-03-14T17:11:08;6.80;98.50
4635;DHT22;2330;48.158;11.816;2023-03-14T17:13:36;6.80;98.50
4635;DHT22;2330;48.158;11.816;2023-03-14T17:16:03;6.80;98.50